createdAt,value
2017-10-18T00:01:38.966Z,51.25
2017-10-18T00:04:06.424Z,53.60
2017-10-18T00:06:33.927Z,46.83
2017-10-18T00:09:01.378Z,41.73
2017-10-18T00:11:28.834Z,36.90
2017-10-18T00:13:56.316Z,58.57
2017-10-18T00:16:23.773Z,52.50
2017-10-18T00:18:51.291Z,52.67
2017-10-18T00:21:19.536Z,42.83
2017-10-18T00:23:46.993Z,37.63
2017-10-18T00:26:14.452Z,51.50
2017-10-18T00:28:41.934Z,43.60
2017-10-18T00:31:10.189Z,40.53
2017-10-18T00:33:37.663Z,43.07
2017-10-18T00:36:05.109Z,40.60
2017-10-18T00:38:32.601Z,60.63
2017-10-18T00:41:00.841Z,50.47
2017-10-18T00:43:28.300Z,54.33
2017-10-18T00:45:55.761Z,56.23
2017-10-18T00:48:23.241Z,50.23
2017-10-18T00:50:51.494Z,50.03
2017-10-18T00:53:18.962Z,52.33
2017-10-18T00:55:46.991Z,56.53
2017-10-18T00:58:14.477Z,53.63
2017-10-18T01:00:41.933Z,54.50
2017-10-18T01:03:09.393Z,89.13
2017-10-18T01:05:36.881Z,55.47
2017-10-18T01:08:05.110Z,54.67
2017-10-18T01:10:32.610Z,61.83
2017-10-18T01:13:00.858Z,49.63
2017-10-18T01:15:28.308Z,60.57
2017-10-18T01:17:55.801Z,53.10
2017-10-18T01:20:23.254Z,49.93
2017-10-18T01:22:50.713Z,69.40
2017-10-18T01:25:18.193Z,61.93
2017-10-18T01:27:46.417Z,73.43
2017-10-18T01:30:13.900Z,65.27
2017-10-18T01:32:41.352Z,52.07
2017-10-18T01:35:08.838Z,47.57
2017-10-18T01:37:37.080Z,71.33
2017-10-18T01:40:04.561Z,58.43
2017-10-18T01:42:32.815Z,67.57
2017-10-18T01:45:00.257Z,55.80
2017-10-18T01:47:27.707Z,42.47
2017-10-18T01:49:55.181Z,41.53
2017-10-18T01:52:22.637Z,44.03
2017-10-18T01:54:50.111Z,66.87
2017-10-18T01:57:19.002Z,53.08
2017-10-18T01:59:46.486Z,56.67
2017-10-18T02:02:14.718Z,50.17
2017-10-18T02:04:42.173Z,63.70
2017-10-18T02:07:09.654Z,63.60
2017-10-18T02:09:37.126Z,54.77
2017-10-18T02:12:05.385Z,86.33
2017-10-18T02:14:32.841Z,47.60
2017-10-18T02:17:00.305Z,51.57
2017-10-18T02:19:27.787Z,54.10
2017-10-18T02:21:56.002Z,71.30
2017-10-18T02:24:23.477Z,43.93
2017-10-18T02:26:50.961Z,51.23
2017-10-18T02:29:19.626Z,42.40
2017-10-18T02:31:47.123Z,43.00
2017-10-18T02:34:14.598Z,43.90
2017-10-18T02:36:42.058Z,53.60
2017-10-18T02:39:09.543Z,64.00
2017-10-18T02:41:37.021Z,44.53
2017-10-18T02:44:04.474Z,55.10
2017-10-18T02:46:31.959Z,50.10
2017-10-18T02:48:59.435Z,47.57
2017-10-18T02:51:26.892Z,50.70
2017-10-18T02:53:55.141Z,42.80
2017-10-18T02:56:22.606Z,50.93
2017-10-18T02:58:50.075Z,60.43
2017-10-18T03:01:17.559Z,39.00
2017-10-18T03:03:45.018Z,67.60
2017-10-18T03:06:12.493Z,54.80
2017-10-18T03:08:40.006Z,47.57
2017-10-18T03:11:07.551Z,56.80
2017-10-18T03:13:35.039Z,61.97
2017-10-18T03:16:03.283Z,36.77
2017-10-18T03:18:30.757Z,53.47
2017-10-18T03:20:58.242Z,48.87
2017-10-18T03:23:25.728Z,48.53
2017-10-18T03:25:53.229Z,52.27
2017-10-18T03:28:20.711Z,45.33
2017-10-18T03:30:48.962Z,57.27
2017-10-18T03:33:16.442Z,64.43
2017-10-18T03:35:44.685Z,57.43
2017-10-18T03:38:12.201Z,63.50
2017-10-18T03:40:39.659Z,45.83
2017-10-18T03:43:07.150Z,63.50
2017-10-18T03:45:34.613Z,58.00
2017-10-18T03:48:02.348Z,95.30
2017-10-18T03:50:29.858Z,48.93
2017-10-18T03:52:57.349Z,38.73
2017-10-18T03:55:25.566Z,68.27
2017-10-18T03:57:53.026Z,54.17
2017-10-18T04:00:21.070Z,47.87
2017-10-18T04:02:48.840Z,57.10
2017-10-18T04:05:16.314Z,46.67
2017-10-18T04:07:43.794Z,56.83
2017-10-18T04:10:11.417Z,48.97
2017-10-18T04:12:38.876Z,50.30
2017-10-18T04:15:06.334Z,39.90
2017-10-18T04:17:33.801Z,42.27
2017-10-18T04:20:01.244Z,47.23
2017-10-18T04:22:28.711Z,45.20
2017-10-18T04:24:56.196Z,59.57
2017-10-18T04:27:23.649Z,48.30
2017-10-18T04:29:52.085Z,61.00
2017-10-18T04:32:19.547Z,40.93
2017-10-18T04:34:47.033Z,44.27
2017-10-18T04:37:14.501Z,53.77
2017-10-18T04:39:41.961Z,53.30
2017-10-18T04:42:09.441Z,48.93
2017-10-18T04:44:36.899Z,91.47
2017-10-18T04:47:04.372Z,52.20
2017-10-18T04:49:31.854Z,57.10
2017-10-18T04:51:59.314Z,62.63
2017-10-18T04:54:26.802Z,65.07
2017-10-18T04:56:54.285Z,66.50
2017-10-18T04:59:22.782Z,45.08
2017-10-18T05:01:51.928Z,73.60
2017-10-18T05:04:19.413Z,60.33
2017-10-18T05:06:46.870Z,43.17
2017-10-18T05:09:14.369Z,50.33
2017-10-18T05:11:42.605Z,52.00
2017-10-18T05:14:10.073Z,51.97
2017-10-18T05:16:37.570Z,52.83
2017-10-18T05:19:05.234Z,40.93
2017-10-18T05:21:32.970Z,61.17
2017-10-18T05:24:00.780Z,69.17
2017-10-18T05:26:28.482Z,52.33
2017-10-18T05:28:56.982Z,60.30
2017-10-18T05:31:24.504Z,68.77
2017-10-18T05:33:52.931Z,55.65
2017-10-18T05:36:20.838Z,37.13
2017-10-18T05:38:48.293Z,57.07
2017-10-18T05:41:16.589Z,65.40
2017-10-18T05:43:44.317Z,71.30
2017-10-18T05:46:11.897Z,52.87
2017-10-18T05:48:39.533Z,70.70
2017-10-18T05:51:07.775Z,60.33
2017-10-18T05:53:35.269Z,56.97
2017-10-18T05:56:02.721Z,52.77
2017-10-18T05:58:30.977Z,58.43
2017-10-18T06:00:58.457Z,69.73
2017-10-18T06:03:26.709Z,58.63
2017-10-18T06:05:57.143Z,58.27
2017-10-18T06:08:24.593Z,39.13
2017-10-18T06:10:52.077Z,62.60
2017-10-18T06:13:19.534Z,70.40
2017-10-18T06:15:47.024Z,67.23
2017-10-18T06:18:14.487Z,77.00
2017-10-18T06:20:42.001Z,49.33
2017-10-18T06:23:10.265Z,46.87
2017-10-18T06:25:37.718Z,77.83
2017-10-18T06:28:05.173Z,39.90
2017-10-18T06:30:32.655Z,43.50
2017-10-18T06:33:00.865Z,53.47
2017-10-18T06:35:28.345Z,39.13
2017-10-18T06:37:55.805Z,57.20
2017-10-18T06:40:24.702Z,61.97
2017-10-18T06:42:52.157Z,45.60
2017-10-18T06:45:19.654Z,59.17
2017-10-18T06:47:47.872Z,64.93
2017-10-18T06:50:15.418Z,45.60
2017-10-18T06:52:42.891Z,100.40
2017-10-18T06:55:10.369Z,99.63
2017-10-18T06:57:37.846Z,60.27
2017-10-18T07:00:05.310Z,65.53
2017-10-18T07:02:32.786Z,72.33
2017-10-18T07:05:00.254Z,146.13
2017-10-18T07:07:28.501Z,99.50
2017-10-18T07:09:55.968Z,79.33
2017-10-18T07:12:24.380Z,101.23
2017-10-18T07:14:51.844Z,78.97
2017-10-18T07:17:19.310Z,117.30
2017-10-18T07:19:46.808Z,113.73
2017-10-18T07:22:14.290Z,171.80
2017-10-18T07:24:41.779Z,110.90
2017-10-18T07:27:09.238Z,162.37
2017-10-18T07:29:36.711Z,121.77
2017-10-18T07:32:04.160Z,125.60
2017-10-18T07:34:31.644Z,109.27
2017-10-18T07:36:59.109Z,176.63
2017-10-18T07:39:26.614Z,175.77
2017-10-18T07:41:55.022Z,177.33
2017-10-18T07:44:22.493Z,174.13
2017-10-18T07:46:49.972Z,147.00
2017-10-18T07:49:17.469Z,233.73
2017-10-18T07:51:44.945Z,159.13
2017-10-18T07:54:12.417Z,198.83
2017-10-18T07:56:39.885Z,125.77
2017-10-18T07:59:07.374Z,236.40
2017-10-18T08:01:35.603Z,157.40
2017-10-18T08:04:03.073Z,208.27
2017-10-18T08:06:30.550Z,192.43
2017-10-18T08:08:58.018Z,209.23
2017-10-18T08:11:26.393Z,225.40
2017-10-18T08:13:53.861Z,174.27
2017-10-18T08:16:21.322Z,172.70
2017-10-18T08:18:49.635Z,134.67
2017-10-18T08:21:17.127Z,155.70
2017-10-18T08:23:44.594Z,179.27
2017-10-18T08:26:12.094Z,170.97
2017-10-18T08:28:39.551Z,145.00
2017-10-18T08:31:07.018Z,172.20
2017-10-18T08:33:34.501Z,163.57
2017-10-18T08:36:01.981Z,154.20
2017-10-18T08:38:29.471Z,125.93
2017-10-18T08:40:57.707Z,136.33
2017-10-18T08:43:25.193Z,128.97
2017-10-18T08:45:52.662Z,140.27
2017-10-18T08:48:20.911Z,141.40
2017-10-18T08:50:48.374Z,144.17
2017-10-18T08:53:15.862Z,132.03
2017-10-18T08:55:44.145Z,127.37
2017-10-18T08:58:12.374Z,160.60
2017-10-18T09:00:39.838Z,134.73
2017-10-18T09:03:07.323Z,156.10
2017-10-18T09:05:34.813Z,140.00
2017-10-18T09:08:02.301Z,139.50
2017-10-18T09:10:29.777Z,132.00
2017-10-18T09:12:57.247Z,151.60
2017-10-18T09:15:24.733Z,162.47
2017-10-18T09:17:52.973Z,152.30
2017-10-18T09:20:20.450Z,148.40
2017-10-18T09:22:47.934Z,158.83
2017-10-18T09:25:15.394Z,150.30
2017-10-18T09:27:42.874Z,146.07
2017-10-18T09:30:10.359Z,150.43
2017-10-18T09:32:37.818Z,142.23
2017-10-18T09:35:05.293Z,145.40
2017-10-18T09:37:32.753Z,147.67
2017-10-18T09:40:00.254Z,139.90
2017-10-18T09:42:27.729Z,153.17
2017-10-18T09:44:55.185Z,144.27
2017-10-18T09:47:22.678Z,147.83
2017-10-18T09:49:50.141Z,140.97
2017-10-18T09:52:17.599Z,160.90
2017-10-18T09:54:45.086Z,132.67
2017-10-18T09:57:13.338Z,139.37
2017-10-18T09:59:40.793Z,160.87
2017-10-18T10:02:08.283Z,142.60
2017-10-18T10:04:35.738Z,146.63
2017-10-18T10:07:03.234Z,151.27
2017-10-18T10:09:30.749Z,135.00
2017-10-18T10:11:59.003Z,155.87
2017-10-18T10:14:26.485Z,141.57
2017-10-18T10:16:54.732Z,176.13
2017-10-18T10:19:22.193Z,161.80
2017-10-18T10:21:49.682Z,150.83
2017-10-18T10:24:17.932Z,154.27
2017-10-18T10:26:45.413Z,139.10
2017-10-18T10:29:13.657Z,149.20
2017-10-18T10:31:41.173Z,153.97
2017-10-18T10:34:08.649Z,132.77
2017-10-18T10:36:36.154Z,127.30
2017-10-18T10:39:04.394Z,133.50
2017-10-18T10:41:31.890Z,133.63
2017-10-18T10:43:59.352Z,130.47
2017-10-18T10:46:26.813Z,115.30
2017-10-18T10:48:54.327Z,121.23
2017-10-18T10:51:21.797Z,132.23
2017-10-18T10:53:49.261Z,134.50
2017-10-18T10:56:16.770Z,136.17
2017-10-18T10:58:44.249Z,118.10
2017-10-18T11:01:11.710Z,132.27
2017-10-18T11:03:39.197Z,135.47
2017-10-18T11:06:06.653Z,124.30
2017-10-18T11:08:34.115Z,119.70
2017-10-18T11:11:01.608Z,135.00
2017-10-18T11:13:29.072Z,116.43
2017-10-18T11:15:56.525Z,128.67
2017-10-18T11:18:24.002Z,107.63
2017-10-18T11:20:51.486Z,119.37
2017-10-18T11:23:18.946Z,120.63
2017-10-18T11:25:46.418Z,115.50
2017-10-18T11:28:13.873Z,136.40
2017-10-18T11:30:41.369Z,110.90
2017-10-18T11:33:09.618Z,119.77
2017-10-18T11:35:37.103Z,109.37
2017-10-18T11:38:05.354Z,116.10
2017-10-18T11:40:32.816Z,109.50
2017-10-18T11:43:00.280Z,107.90
2017-10-18T11:45:28.550Z,119.43
2017-10-18T11:47:56.015Z,137.67
2017-10-18T11:50:24.238Z,105.63
2017-10-18T11:52:51.701Z,107.83
2017-10-18T11:55:19.225Z,104.87
2017-10-18T11:57:47.474Z,121.30
2017-10-18T12:00:14.966Z,99.07
2017-10-18T12:02:42.480Z,102.03
2017-10-18T12:05:09.958Z,95.57
2017-10-18T12:07:37.471Z,92.57
2017-10-18T12:10:04.950Z,81.83
2017-10-18T12:12:32.434Z,86.70
2017-10-18T12:15:01.070Z,96.78
2017-10-18T12:17:28.525Z,84.23
2017-10-18T12:19:56.034Z,93.30
2017-10-18T12:22:23.490Z,96.63
2017-10-18T12:24:50.945Z,87.40
2017-10-18T12:27:18.434Z,106.63
2017-10-18T12:29:46.691Z,85.73
2017-10-18T12:32:14.942Z,82.07
2017-10-18T12:34:42.409Z,81.90
2017-10-18T12:37:09.861Z,96.90
2017-10-18T12:39:37.347Z,95.50
2017-10-18T12:42:05.578Z,102.30
2017-10-18T12:44:33.062Z,93.43
2017-10-18T12:47:00.869Z,99.07
2017-10-18T12:49:28.341Z,89.53
2017-10-18T12:51:55.825Z,106.17
2017-10-18T12:54:23.283Z,93.13
2017-10-18T12:56:50.762Z,102.50
2017-10-18T12:59:18.275Z,103.90
2017-10-18T13:01:45.745Z,88.97
2017-10-18T13:04:13.238Z,95.33
2017-10-18T13:06:40.697Z,92.20
2017-10-18T13:09:08.155Z,86.10
2017-10-18T13:11:35.648Z,100.20
2017-10-18T13:14:03.105Z,97.97
2017-10-18T13:16:31.522Z,88.73
2017-10-18T13:18:58.978Z,81.27
2017-10-18T13:21:26.466Z,84.37
2017-10-18T13:23:54.064Z,86.20
2017-10-18T13:26:21.532Z,89.53
2017-10-18T13:28:49.014Z,75.63
2017-10-18T13:31:16.542Z,70.53
2017-10-18T13:33:44.019Z,77.83
2017-10-18T13:36:11.489Z,69.03
2017-10-18T13:38:38.974Z,71.33
2017-10-18T13:41:06.434Z,76.47
2017-10-18T13:43:33.882Z,83.33
2017-10-18T13:46:02.808Z,58.53
2017-10-18T13:48:31.030Z,53.70
2017-10-18T13:50:58.520Z,70.47
2017-10-18T13:53:26.782Z,53.47
2017-10-18T13:55:54.236Z,61.57
2017-10-18T13:58:21.734Z,63.90
2017-10-18T14:00:49.966Z,58.07
2017-10-18T14:03:17.444Z,59.23
2017-10-18T14:05:44.941Z,50.13
2017-10-18T14:08:12.448Z,63.90
2017-10-18T14:10:39.914Z,58.47
2017-10-18T14:13:07.393Z,59.50
2017-10-18T14:15:34.882Z,56.67
2017-10-18T14:18:02.948Z,51.83
2017-10-18T14:20:30.683Z,60.97
2017-10-18T14:22:58.281Z,64.00
2017-10-18T14:25:26.050Z,61.23
2017-10-18T14:27:53.626Z,56.30
2017-10-18T14:30:21.122Z,57.07
2017-10-18T14:32:48.584Z,62.23
2017-10-18T14:35:16.201Z,54.20
2017-10-18T14:37:43.701Z,50.67
2017-10-18T14:40:11.166Z,55.27
2017-10-18T14:42:38.646Z,52.40
2017-10-18T14:45:06.882Z,45.93
2017-10-18T14:47:34.369Z,42.20
2017-10-18T14:50:03.535Z,44.57
2017-10-18T14:52:31.135Z,42.70
2017-10-18T14:54:58.854Z,43.27
2017-10-18T14:57:26.696Z,46.37
2017-10-18T14:59:54.204Z,50.07
2017-10-18T15:02:22.779Z,46.97
2017-10-18T15:04:50.453Z,49.80
2017-10-18T15:07:18.765Z,43.00
2017-10-18T15:09:46.284Z,53.60
2017-10-18T15:12:13.810Z,48.30
2017-10-18T15:14:41.655Z,42.87
2017-10-18T15:17:09.227Z,44.73
2017-10-18T15:19:37.039Z,46.70
2017-10-18T15:22:04.701Z,45.97
2017-10-18T15:24:32.473Z,47.17
2017-10-18T15:27:00.009Z,49.70
2017-10-18T15:29:27.680Z,50.50
2017-10-18T15:31:55.216Z,48.00
2017-10-18T15:34:22.705Z,54.57
2017-10-18T15:36:51.293Z,54.67
2017-10-18T15:39:20.039Z,52.47
2017-10-18T15:41:47.764Z,50.83
2017-10-18T15:44:15.389Z,56.40
2017-10-18T15:46:43.807Z,55.23
2017-10-18T15:49:11.553Z,50.50
2017-10-18T15:51:39.219Z,62.60
2017-10-18T15:54:06.700Z,51.73
2017-10-18T15:56:36.598Z,54.67
2017-10-18T15:59:06.373Z,62.70
2017-10-18T16:01:35.680Z,73.57
2017-10-18T16:04:03.186Z,52.80
2017-10-18T16:06:30.694Z,54.30
2017-10-18T16:08:58.301Z,54.00
2017-10-18T16:11:26.595Z,50.40
2017-10-18T16:13:54.252Z,50.90
2017-10-18T16:16:21.914Z,53.10
2017-10-18T16:18:49.576Z,52.27
2017-10-18T16:21:17.237Z,73.37
2017-10-18T16:23:44.907Z,60.97
2017-10-18T16:26:12.412Z,56.63
2017-10-18T16:28:39.868Z,53.80
2017-10-18T16:31:07.328Z,51.40
2017-10-18T16:33:35.977Z,51.20
2017-10-18T16:36:03.859Z,53.37
2017-10-18T16:38:31.552Z,58.87
2017-10-18T16:40:59.976Z,59.17
2017-10-18T16:43:27.500Z,59.43
2017-10-18T16:45:56.385Z,61.60
2017-10-18T16:48:24.006Z,59.50
2017-10-18T16:50:52.212Z,67.40
2017-10-18T16:53:20.072Z,55.83
2017-10-18T16:55:48.333Z,51.13
2017-10-18T16:58:15.999Z,59.57
2017-10-18T17:00:43.635Z,48.83
2017-10-18T17:03:11.187Z,55.93
2017-10-18T17:05:39.536Z,58.10
2017-10-18T17:08:07.150Z,53.90
2017-10-18T17:10:35.656Z,62.00
2017-10-18T17:13:03.333Z,64.80
2017-10-18T17:15:30.863Z,56.87
2017-10-18T17:17:58.684Z,58.53
2017-10-18T17:20:26.139Z,56.13
2017-10-18T17:22:53.649Z,55.80
2017-10-18T17:25:21.112Z,59.77
2017-10-18T17:27:48.566Z,56.07
2017-10-18T17:30:16.150Z,62.00
2017-10-18T17:32:43.605Z,72.97
2017-10-18T17:35:11.076Z,62.27
2017-10-18T17:37:38.558Z,74.00
2017-10-18T17:40:06.025Z,70.90
2017-10-18T17:42:33.525Z,79.83
2017-10-18T17:45:00.985Z,76.97
2017-10-18T17:47:28.446Z,71.23
2017-10-18T17:49:55.966Z,85.13
2017-10-18T17:52:23.439Z,78.40
2017-10-18T17:54:50.894Z,84.43
2017-10-18T17:57:18.391Z,75.87
2017-10-18T17:59:45.852Z,92.70
2017-10-18T18:02:13.333Z,85.70
2017-10-18T18:04:40.822Z,87.17
2017-10-18T18:07:08.300Z,90.40
2017-10-18T18:09:36.274Z,84.17
2017-10-18T18:12:03.751Z,83.47
2017-10-18T18:14:31.212Z,102.90
2017-10-18T18:16:58.701Z,83.60
2017-10-18T18:19:26.153Z,84.50
2017-10-18T18:21:53.633Z,94.33
2017-10-18T18:24:21.114Z,102.27
2017-10-18T18:26:48.584Z,89.80
2017-10-18T18:29:16.118Z,82.00
2017-10-18T18:31:44.328Z,85.10
2017-10-18T18:34:11.817Z,69.87
2017-10-18T18:36:39.269Z,77.80
2017-10-18T18:39:06.727Z,84.53
2017-10-18T18:41:34.196Z,76.07
2017-10-18T18:44:01.654Z,80.27
2017-10-18T18:46:29.123Z,76.60
2017-10-18T18:48:57.376Z,81.87
2017-10-18T18:51:24.871Z,73.93
2017-10-18T18:53:53.089Z,77.47
2017-10-18T18:56:20.561Z,70.13
2017-10-18T18:58:48.073Z,79.83
2017-10-18T19:01:15.544Z,91.87
2017-10-18T19:03:43.115Z,68.97
2017-10-18T19:06:10.713Z,81.37
2017-10-18T19:08:38.223Z,77.53
2017-10-18T19:11:05.674Z,67.93
2017-10-18T19:13:33.124Z,67.03
2017-10-18T19:16:00.806Z,72.10
2017-10-18T19:18:28.270Z,71.43
2017-10-18T19:20:55.725Z,80.43
2017-10-18T19:23:23.526Z,62.67
2017-10-18T19:25:50.973Z,73.03
2017-10-18T19:28:18.443Z,62.70
2017-10-18T19:30:46.073Z,67.33
2017-10-18T19:33:13.574Z,75.27
2017-10-18T19:35:41.507Z,67.57
2017-10-18T19:38:08.977Z,68.80
2017-10-18T19:40:38.164Z,70.23
2017-10-18T19:43:05.645Z,64.97
2017-10-18T19:45:33.128Z,62.57
2017-10-18T19:48:01.360Z,70.73
2017-10-18T19:50:28.905Z,70.03
2017-10-18T19:52:56.381Z,60.83
2017-10-18T19:55:24.002Z,59.13
2017-10-18T19:57:52.492Z,58.83
2017-10-18T20:00:19.968Z,66.97
2017-10-18T20:02:47.465Z,64.70
2017-10-18T20:05:14.913Z,59.20
2017-10-18T20:07:42.545Z,58.20
2017-10-18T20:10:10.008Z,60.73
2017-10-18T20:12:37.934Z,56.47
2017-10-18T20:15:06.182Z,55.33
2017-10-18T20:17:33.633Z,60.87
2017-10-18T20:20:01.091Z,61.10
2017-10-18T20:22:28.581Z,61.00
2017-10-18T20:24:56.805Z,55.33
2017-10-18T20:27:24.261Z,50.27
2017-10-18T20:29:52.493Z,63.23
2017-10-18T20:32:20.733Z,67.50
2017-10-18T20:34:48.219Z,54.47
2017-10-18T20:37:15.726Z,68.50
2017-10-18T20:39:43.189Z,56.97
2017-10-18T20:42:10.645Z,51.10
2017-10-18T20:44:38.396Z,57.17
2017-10-18T20:47:05.891Z,53.03
2017-10-18T20:49:33.385Z,58.87
2017-10-18T20:52:01.615Z,51.23
2017-10-18T20:54:29.134Z,54.73
2017-10-18T20:56:57.361Z,55.27
2017-10-18T20:59:24.819Z,56.00
2017-10-18T21:01:52.306Z,59.97
2017-10-18T21:04:19.765Z,61.67
2017-10-18T21:06:48.014Z,58.93
2017-10-18T21:09:15.521Z,65.67
2017-10-18T21:11:43.753Z,57.30
2017-10-18T21:14:11.233Z,54.53
2017-10-18T21:16:38.826Z,57.90
2017-10-18T21:19:06.378Z,57.63
2017-10-18T21:21:33.870Z,71.33
2017-10-18T21:24:01.335Z,47.90
2017-10-18T21:26:28.802Z,53.23
2017-10-18T21:28:56.277Z,57.40
2017-10-18T21:31:23.781Z,50.60
2017-10-18T21:33:51.295Z,53.33
2017-10-18T21:36:18.759Z,64.30
2017-10-18T21:38:46.232Z,53.17
2017-10-18T21:41:14.485Z,52.63
2017-10-18T21:43:41.970Z,53.10
2017-10-18T21:46:10.211Z,48.90
2017-10-18T21:48:37.713Z,46.00
2017-10-18T21:51:05.970Z,58.53
2017-10-18T21:53:33.450Z,46.27
2017-10-18T21:56:01.677Z,52.23
2017-10-18T21:58:29.177Z,48.53
2017-10-18T22:00:57.400Z,45.77
2017-10-18T22:03:24.898Z,55.27
2017-10-18T22:05:53.129Z,48.83
2017-10-18T22:08:20.596Z,42.70
2017-10-18T22:10:48.101Z,49.60
2017-10-18T22:13:16.329Z,49.40
2017-10-18T22:15:43.796Z,53.63
2017-10-18T22:18:11.286Z,51.37
2017-10-18T22:20:38.781Z,50.90
2017-10-18T22:23:06.247Z,47.73
2017-10-18T22:25:33.752Z,44.83
2017-10-18T22:28:01.209Z,47.27
2017-10-18T22:30:28.719Z,43.57
2017-10-18T22:32:56.313Z,44.70
2017-10-18T22:35:23.768Z,53.73
2017-10-18T22:37:51.240Z,49.60
2017-10-18T22:40:18.731Z,46.80
2017-10-18T22:42:46.953Z,49.03
2017-10-18T22:45:14.439Z,42.47
2017-10-18T22:47:41.910Z,50.53
2017-10-18T22:50:10.181Z,42.80
2017-10-18T22:52:37.658Z,47.40
2017-10-18T22:55:05.145Z,43.43
2017-10-18T22:57:32.654Z,47.60
2017-10-18T23:00:00.905Z,52.43
2017-10-18T23:02:28.369Z,51.23
2017-10-18T23:04:55.845Z,47.87
2017-10-18T23:07:23.331Z,43.83
2017-10-18T23:09:51.627Z,46.80
2017-10-18T23:12:19.073Z,44.40
2017-10-18T23:14:46.529Z,50.80
2017-10-18T23:17:14.014Z,51.53
2017-10-18T23:19:41.469Z,47.33
2017-10-18T23:22:08.921Z,46.93
2017-10-18T23:24:36.478Z,47.23
2017-10-18T23:27:03.931Z,47.17
2017-10-18T23:29:31.411Z,59.43
2017-10-18T23:31:58.899Z,63.80
2017-10-18T23:34:26.383Z,64.67
2017-10-18T23:36:54.669Z,45.03
2017-10-18T23:39:22.163Z,54.97
2017-10-18T23:41:49.645Z,47.53
2017-10-18T23:44:17.200Z,46.87
2017-10-18T23:46:44.665Z,46.97
2017-10-18T23:49:12.146Z,47.03
2017-10-18T23:51:41.309Z,56.30
2017-10-18T23:54:08.782Z,46.27
2017-10-18T23:56:36.242Z,48.07
2017-10-18T23:59:03.734Z,53.57
